createdAt,value
2023-09-08T00:00:22.430Z,13.60
2023-09-08T00:03:10.837Z,14.90
2023-09-08T00:05:39.439Z,15.40
2023-09-08T00:08:07.738Z,17.60
2023-09-08T00:10:36.034Z,17.70
2023-09-08T00:13:04.624Z,16.60
2023-09-08T00:15:36.672Z,16.40
2023-09-08T00:18:05.489Z,17.00
2023-09-08T00:20:33.849Z,13.80
2023-09-08T00:23:02.280Z,14.30
2023-09-08T00:25:30.732Z,13.20
2023-09-08T00:28:05.537Z,12.60
2023-09-08T00:33:02.452Z,12.30
2023-09-08T00:35:31.207Z,12.90
2023-09-08T00:37:59.706Z,13.60
2023-09-08T00:40:29.913Z,12.90
2023-09-08T00:42:58.212Z,12.50
2023-09-08T00:45:31.033Z,12.70
2023-09-08T00:48:00.340Z,12.10
2023-09-08T00:50:29.037Z,12.40
2023-09-08T00:52:57.900Z,12.70
2023-09-08T00:55:26.397Z,12.70
2023-09-08T00:57:54.884Z,12.70
2023-09-08T01:00:23.276Z,12.30
2023-09-08T01:02:51.712Z,12.10
2023-09-08T01:05:22.045Z,12.30
2023-09-08T01:07:52.370Z,12.50
2023-09-08T01:10:20.870Z,13.20
2023-09-08T01:12:49.176Z,12.40
2023-09-08T01:15:17.439Z,11.90
2023-09-08T01:17:45.881Z,12.80
2023-09-08T01:20:25.803Z,12.70
2023-09-08T01:23:19.906Z,13.10
2023-09-08T01:25:55.602Z,11.60
2023-09-08T01:28:25.983Z,12.00
2023-09-08T01:30:57.090Z,12.20
2023-09-08T01:33:27.699Z,12.80
2023-09-08T01:35:56.450Z,12.00
2023-09-08T01:38:26.271Z,13.50
2023-09-08T01:40:54.750Z,12.90
2023-09-08T01:43:22.934Z,12.20
2023-09-08T01:45:51.081Z,12.70
2023-09-08T01:48:19.361Z,11.50
2023-09-08T01:50:49.004Z,12.50
2023-09-08T01:53:17.090Z,12.00
2023-09-08T01:55:45.394Z,12.30
2023-09-08T01:58:14.140Z,12.20
2023-09-08T02:00:42.404Z,11.70
2023-09-08T02:03:10.710Z,10.90
2023-09-08T02:05:40.344Z,12.20
2023-09-08T02:08:08.954Z,11.00
2023-09-08T02:10:37.301Z,11.20
2023-09-08T02:13:05.546Z,11.60
2023-09-08T02:15:38.009Z,11.80
2023-09-08T02:18:08.526Z,11.90
2023-09-08T02:20:37.517Z,11.50
2023-09-08T02:23:08.117Z,11.20
2023-09-08T02:25:36.548Z,11.50
2023-09-08T02:28:05.382Z,11.10
2023-09-08T02:30:33.814Z,12.00
2023-09-08T02:33:04.474Z,11.40
2023-09-08T02:35:38.195Z,11.20
2023-09-08T02:38:07.020Z,11.90
2023-09-08T02:40:35.956Z,10.90
2023-09-08T02:43:05.856Z,10.70
2023-09-08T02:45:36.450Z,10.50
2023-09-08T02:48:05.487Z,11.00
2023-09-08T02:50:34.250Z,11.20
2023-09-08T02:53:02.541Z,10.90
2023-09-08T02:55:31.648Z,10.30
2023-09-08T02:57:59.877Z,11.30
2023-09-08T03:00:29.297Z,10.90
2023-09-08T03:02:57.523Z,10.20
2023-09-08T03:05:26.976Z,11.20
2023-09-08T03:07:55.152Z,10.70
2023-09-08T03:10:23.716Z,9.90
2023-09-08T03:12:52.024Z,10.50
2023-09-08T03:15:20.254Z,11.60
2023-09-08T03:17:48.372Z,10.90
2023-09-08T03:20:16.753Z,10.80
2023-09-08T03:22:44.946Z,10.50
2023-09-08T03:25:17.738Z,11.20
2023-09-08T03:27:45.939Z,10.90
2023-09-08T03:30:14.626Z,12.70
2023-09-08T03:32:43.274Z,12.00
2023-09-08T03:35:11.842Z,11.70
2023-09-08T03:37:40.444Z,11.60
2023-09-08T03:40:10.590Z,12.00
2023-09-08T03:42:39.164Z,12.10
2023-09-08T03:45:07.744Z,11.00
2023-09-08T03:47:36.837Z,11.20
2023-09-08T03:50:05.701Z,13.10
2023-09-08T03:52:34.020Z,11.80
2023-09-08T03:55:02.627Z,12.50
2023-09-08T03:57:30.940Z,13.80
2023-09-08T03:59:59.287Z,11.70
2023-09-08T04:02:27.521Z,13.20
2023-09-08T04:04:56.391Z,12.60
2023-09-08T04:07:24.719Z,11.60
2023-09-08T04:09:52.920Z,13.50
2023-09-08T04:12:21.238Z,13.00
2023-09-08T04:14:50.493Z,13.20
2023-09-08T04:17:19.626Z,12.60
2023-09-08T04:19:47.794Z,13.20
2023-09-08T04:22:16.056Z,12.70
2023-09-08T04:24:44.877Z,12.60
2023-09-08T04:27:15.546Z,12.60
2023-09-08T04:29:44.349Z,12.30
2023-09-08T04:32:12.837Z,12.20
2023-09-08T04:34:43.502Z,13.30
2023-09-08T04:37:11.900Z,11.20
2023-09-08T04:39:40.291Z,12.50
2023-09-08T04:42:09.290Z,12.00
2023-09-08T04:44:37.653Z,12.60
2023-09-08T04:47:06.623Z,12.30
2023-09-08T04:49:35.290Z,11.60
2023-09-08T04:52:03.687Z,11.10
2023-09-08T04:54:33.093Z,11.90
2023-09-08T04:57:16.071Z,12.60
2023-09-08T04:59:50.344Z,12.60
2023-09-08T05:02:20.032Z,12.30
2023-09-08T05:04:49.139Z,12.20
2023-09-08T05:07:20.273Z,14.00
2023-09-08T05:09:49.221Z,13.40
2023-09-08T05:12:17.659Z,13.90
2023-09-08T05:14:45.902Z,15.10
2023-09-08T05:17:14.219Z,14.90
2023-09-08T05:19:42.413Z,13.30
2023-09-08T05:22:10.663Z,13.10
2023-09-08T05:24:38.926Z,13.80
2023-09-08T05:27:07.519Z,14.50
2023-09-08T05:29:35.916Z,16.40
2023-09-08T05:32:04.543Z,17.50
2023-09-08T05:34:32.896Z,17.80
2023-09-08T05:37:01.155Z,18.90
2023-09-08T05:39:29.431Z,17.40
2023-09-08T05:41:58.528Z,16.00
2023-09-08T05:44:26.806Z,16.40
2023-09-08T05:46:56.067Z,16.50
2023-09-08T05:49:26.156Z,16.30
2023-09-08T05:51:54.475Z,15.10
2023-09-08T05:54:23.330Z,15.40
2023-09-08T05:56:52.033Z,15.10
2023-09-08T05:59:20.326Z,15.10
2023-09-08T06:01:48.739Z,16.40
2023-09-08T06:04:17.384Z,14.40
2023-09-08T06:06:46.499Z,16.20
2023-09-08T06:09:17.670Z,15.90
2023-09-08T06:11:47.337Z,14.80
2023-09-08T06:14:15.739Z,14.00
2023-09-08T06:16:47.500Z,13.70
2023-09-08T06:19:16.077Z,14.00
2023-09-08T06:21:44.791Z,13.70
2023-09-08T06:24:14.195Z,13.50
2023-09-08T06:26:44.026Z,14.00
2023-09-08T06:29:12.807Z,14.30
2023-09-08T06:31:41.061Z,15.00
2023-09-08T06:34:09.710Z,13.70
2023-09-08T06:36:38.952Z,13.80
2023-09-08T06:39:07.199Z,13.80
2023-09-08T06:41:35.557Z,13.20
2023-09-08T06:44:04.529Z,13.20
2023-09-08T06:46:33.069Z,13.40
2023-09-08T06:49:02.962Z,14.70
2023-09-08T06:51:33.674Z,14.30
2023-09-08T06:54:02.521Z,12.90
2023-09-08T06:56:38.026Z,14.10
2023-09-08T06:59:06.481Z,14.00
2023-09-08T07:01:36.078Z,14.60
2023-09-08T07:04:04.896Z,14.50
2023-09-08T07:06:33.771Z,14.80
2023-09-08T07:09:03.199Z,15.70
2023-09-08T07:11:31.905Z,15.60
2023-09-08T07:14:00.271Z,15.20
2023-09-08T07:16:28.712Z,15.30
2023-09-08T07:18:57.035Z,15.20
2023-09-08T07:21:25.299Z,14.80
2023-09-08T07:23:55.067Z,12.10
2023-09-08T07:26:23.349Z,13.60
2023-09-08T07:28:51.716Z,13.60
2023-09-08T07:31:20.119Z,12.10
2023-09-08T07:33:49.976Z,9.90
2023-09-08T07:36:18.619Z,11.30
2023-09-08T07:38:47.667Z,10.10
2023-09-08T07:41:16.157Z,9.70
2023-09-08T07:43:47.268Z,8.80
2023-09-08T07:46:17.122Z,8.50
2023-09-08T07:48:45.668Z,9.70
2023-09-08T07:51:13.992Z,9.00
2023-09-08T07:53:42.382Z,9.10
2023-09-08T07:56:10.710Z,9.40
2023-09-08T07:58:41.072Z,8.80
2023-09-08T08:01:09.566Z,9.10
2023-09-08T08:03:38.973Z,8.80
2023-09-08T08:06:07.497Z,8.80
2023-09-08T08:08:39.973Z,8.30
2023-09-08T08:11:16.776Z,8.80
2023-09-08T08:13:47.329Z,8.40
2023-09-08T08:16:15.591Z,8.10
2023-09-08T08:18:43.986Z,8.40
2023-09-08T08:21:12.424Z,9.10
2023-09-08T08:23:40.611Z,8.50
2023-09-08T08:26:08.843Z,8.50
2023-09-08T08:28:37.578Z,8.70
2023-09-08T08:31:06.325Z,8.90
2023-09-08T08:33:34.948Z,8.10
2023-09-08T08:36:04.354Z,9.00
2023-09-08T08:38:32.703Z,8.30
2023-09-08T08:41:05.909Z,8.40
2023-09-08T08:43:34.658Z,8.10
2023-09-08T08:46:03.485Z,8.90
2023-09-08T08:48:33.317Z,8.40
2023-09-08T08:51:03.924Z,8.00
2023-09-08T08:53:33.671Z,7.80
2023-09-08T08:56:02.109Z,8.20
2023-09-08T08:58:30.909Z,8.10
2023-09-08T09:01:00.499Z,8.20
2023-09-08T09:03:30.192Z,8.30
2023-09-08T09:05:58.717Z,7.50
2023-09-08T09:08:29.851Z,8.00
2023-09-08T09:10:58.157Z,8.00
2023-09-08T09:13:26.506Z,8.50
2023-09-08T09:16:01.407Z,8.40
2023-09-08T09:18:32.029Z,8.20
2023-09-08T09:21:02.257Z,7.70
2023-09-08T09:23:35.372Z,8.20
2023-09-08T09:26:08.148Z,8.30
2023-09-08T09:28:49.829Z,8.30
2023-09-08T09:31:18.179Z,7.80
2023-09-08T09:33:46.755Z,8.20
2023-09-08T09:36:22.052Z,7.90
2023-09-08T09:38:50.257Z,7.50
2023-09-08T09:41:18.518Z,8.20
2023-09-08T09:43:47.524Z,8.60
2023-09-08T09:46:16.889Z,8.10
2023-09-08T09:48:45.155Z,8.60
2023-09-08T09:51:21.000Z,7.90
2023-09-08T09:53:51.327Z,7.30
2023-09-08T09:56:19.585Z,7.50
2023-09-08T09:58:49.477Z,8.50
2023-09-08T10:01:18.662Z,7.60
2023-09-08T10:03:48.602Z,7.30
2023-09-08T10:06:18.132Z,7.40
2023-09-08T10:08:46.839Z,7.90
2023-09-08T10:11:16.252Z,6.80
2023-09-08T10:13:48.309Z,7.20
2023-09-08T10:16:20.764Z,7.30
2023-09-08T10:18:52.392Z,7.30
2023-09-08T10:21:24.544Z,6.90
2023-09-08T10:24:04.871Z,7.00
2023-09-08T10:26:36.039Z,7.30
2023-09-08T10:29:04.431Z,6.70
2023-09-08T10:31:33.015Z,6.40
2023-09-08T10:34:03.701Z,7.20
2023-09-08T10:36:33.641Z,7.10
2023-09-08T10:39:43.261Z,6.10
2023-09-08T10:42:17.314Z,6.30
2023-09-08T10:44:48.532Z,7.60
2023-09-08T10:47:24.573Z,6.80
2023-09-08T10:50:00.379Z,6.40
2023-09-08T10:52:30.089Z,6.40
2023-09-08T10:54:59.171Z,6.30
2023-09-08T10:57:27.542Z,7.20
2023-09-08T10:59:58.789Z,7.00
2023-09-08T11:02:40.515Z,6.40
2023-09-08T11:05:11.684Z,6.90
2023-09-08T11:07:41.835Z,6.80
2023-09-08T11:10:11.603Z,7.50
2023-09-08T11:12:39.897Z,7.60
2023-09-08T11:15:09.972Z,7.30
2023-09-08T11:17:43.625Z,6.50
2023-09-08T11:20:13.889Z,7.00
2023-09-08T11:22:42.786Z,6.80
2023-09-08T11:25:12.905Z,6.40
2023-09-08T11:27:41.483Z,6.90
2023-09-08T11:30:10.404Z,5.60
2023-09-08T11:32:38.756Z,6.20
2023-09-08T11:35:10.113Z,5.80
2023-09-08T11:37:39.975Z,6.40
2023-09-08T11:40:12.213Z,6.70
2023-09-08T11:42:46.240Z,6.50
2023-09-08T11:45:19.446Z,5.90
2023-09-08T11:47:47.882Z,5.50
2023-09-08T11:50:18.347Z,6.10
2023-09-08T11:52:48.922Z,6.20
2023-09-08T11:55:19.199Z,5.90
2023-09-08T11:57:51.364Z,6.20
2023-09-08T12:00:22.436Z,6.50
2023-09-08T12:02:51.574Z,6.10
2023-09-08T12:05:25.630Z,6.10
2023-09-08T12:10:23.916Z,5.50
2023-09-08T12:12:59.565Z,5.70
2023-09-08T12:15:34.516Z,5.60
2023-09-08T12:18:06.978Z,5.50
2023-09-08T12:20:36.475Z,6.00
2023-09-08T12:23:08.897Z,5.60
2023-09-08T12:25:46.478Z,5.00
2023-09-08T12:28:16.924Z,5.70
2023-09-08T12:30:46.170Z,6.20
2023-09-08T12:33:21.889Z,5.60
2023-09-08T12:35:55.027Z,5.00
2023-09-08T12:38:24.874Z,5.90
2023-09-08T12:40:54.186Z,5.40
2023-09-08T12:43:28.169Z,5.70
2023-09-08T12:45:57.615Z,6.50
2023-09-08T12:48:26.573Z,7.20
2023-09-08T12:50:55.037Z,5.90
2023-09-08T12:53:24.659Z,6.00
2023-09-08T12:55:53.264Z,6.70
2023-09-08T12:58:22.071Z,5.80
2023-09-08T13:00:51.548Z,6.00
2023-09-08T13:03:19.803Z,5.40
2023-09-08T13:05:48.184Z,5.90
2023-09-08T13:08:16.682Z,5.60
2023-09-08T13:10:44.916Z,5.60
2023-09-08T13:13:13.118Z,4.80
2023-09-08T13:15:41.425Z,5.80
2023-09-08T13:18:09.753Z,5.30
2023-09-08T13:20:38.073Z,5.00
2023-09-08T13:23:06.435Z,5.70
2023-09-08T13:25:34.637Z,5.90
2023-09-08T13:28:02.933Z,6.40
2023-09-08T13:30:31.242Z,6.20
2023-09-08T13:32:59.614Z,6.30
2023-09-08T13:35:27.835Z,5.30
2023-09-08T13:37:55.976Z,5.80
2023-09-08T13:40:24.411Z,5.90
2023-09-08T13:42:52.952Z,6.20
2023-09-08T13:45:21.463Z,6.10
2023-09-08T13:47:50.531Z,5.70
2023-09-08T13:50:20.856Z,6.10
2023-09-08T13:52:51.398Z,6.50
2023-09-08T13:55:36.776Z,5.70
2023-09-08T13:58:09.428Z,6.00
2023-09-08T14:00:44.928Z,6.10
2023-09-08T14:03:15.879Z,5.40
2023-09-08T14:08:28.536Z,6.20
2023-09-08T14:13:29.551Z,5.90
2023-09-08T14:15:59.362Z,6.40
2023-09-08T14:18:29.120Z,6.10
2023-09-08T14:20:57.288Z,6.00
2023-09-08T14:23:25.538Z,6.00
2023-09-08T14:25:53.885Z,6.10
2023-09-08T14:28:22.431Z,6.30
2023-09-08T14:30:52.433Z,6.20
2023-09-08T14:33:21.261Z,6.10
2023-09-08T14:35:52.702Z,6.10
2023-09-08T14:38:25.177Z,6.10
2023-09-08T14:41:01.693Z,6.70
2023-09-08T14:43:31.067Z,6.50
2023-09-08T14:45:59.316Z,6.70
2023-09-08T14:48:27.802Z,6.20
2023-09-08T14:50:59.345Z,5.80
2023-09-08T14:53:30.097Z,6.50
2023-09-08T14:56:01.404Z,6.90
2023-09-08T14:58:35.095Z,6.20
2023-09-08T15:01:08.466Z,6.00
2023-09-08T15:03:37.350Z,6.20
2023-09-08T15:06:05.948Z,6.60
2023-09-08T15:08:34.679Z,6.70
2023-09-08T15:11:02.812Z,7.60
2023-09-08T15:13:31.134Z,6.00
2023-09-08T15:16:00.753Z,7.00
2023-09-08T15:18:29.022Z,6.60
2023-09-08T15:20:58.277Z,7.00
2023-09-08T15:23:26.554Z,6.70
2023-09-08T15:25:57.052Z,7.20
2023-09-08T15:28:26.006Z,6.70
2023-09-08T15:30:55.976Z,6.60
2023-09-08T15:33:24.944Z,6.40
2023-09-08T15:35:55.916Z,7.20
2023-09-08T15:38:24.706Z,7.50
2023-09-08T15:41:18.490Z,7.10
2023-09-08T15:43:54.432Z,6.60
2023-09-08T15:46:22.925Z,6.50
2023-09-08T15:48:51.278Z,7.30
2023-09-08T15:51:19.559Z,7.60
2023-09-08T15:53:47.967Z,7.50
2023-09-08T15:56:16.304Z,7.10
2023-09-08T15:58:44.632Z,7.40
2023-09-08T16:01:13.607Z,7.10
2023-09-08T16:03:42.655Z,7.60
2023-09-08T16:06:13.996Z,7.50
2023-09-08T16:08:42.579Z,7.80
2023-09-08T16:11:10.857Z,7.50
2023-09-08T16:13:39.349Z,8.20
2023-09-08T16:16:07.952Z,7.10
2023-09-08T16:18:36.268Z,7.50
2023-09-08T16:21:04.630Z,7.50
2023-09-08T16:23:32.928Z,8.30
2023-09-08T16:26:01.209Z,8.80
2023-09-08T16:28:29.534Z,7.90
2023-09-08T16:31:04.254Z,9.30
2023-09-08T16:33:32.689Z,8.80
2023-09-08T16:36:01.210Z,8.20
2023-09-08T16:38:29.438Z,9.70
2023-09-08T16:40:59.208Z,8.90
2023-09-08T16:43:27.887Z,9.40
2023-09-08T16:45:56.053Z,9.40
2023-09-08T16:48:25.017Z,9.50
2023-09-08T16:50:53.336Z,9.10
2023-09-08T16:53:21.513Z,10.00
2023-09-08T16:55:49.729Z,8.90
2023-09-08T16:58:18.035Z,8.70
2023-09-08T17:00:46.159Z,9.30
2023-09-08T17:03:14.463Z,9.50
2023-09-08T17:05:44.339Z,9.90
2023-09-08T17:08:12.630Z,9.70
2023-09-08T17:10:40.973Z,10.00
2023-09-08T17:13:09.343Z,9.50
2023-09-08T17:15:37.652Z,9.40
2023-09-08T17:18:06.155Z,9.10
2023-09-08T17:20:34.508Z,10.10
2023-09-08T17:23:05.743Z,9.50
2023-09-08T17:25:33.971Z,10.50
2023-09-08T17:28:03.070Z,9.90
2023-09-08T17:30:31.237Z,9.70
2023-09-08T17:32:59.517Z,11.10
2023-09-08T17:35:28.268Z,11.60
2023-09-08T17:37:56.466Z,12.50
2023-09-08T17:40:24.652Z,11.70
2023-09-08T17:42:52.925Z,12.60
2023-09-08T17:45:21.105Z,11.90
2023-09-08T17:47:49.402Z,12.20
2023-09-08T17:50:18.196Z,12.00
2023-09-08T17:52:46.453Z,14.20
2023-09-08T17:55:14.939Z,14.20
2023-09-08T17:57:43.199Z,13.40
2023-09-08T18:00:11.798Z,14.00
2023-09-08T18:02:40.437Z,12.90
2023-09-08T18:05:09.477Z,13.00
2023-09-08T18:07:38.183Z,12.80
2023-09-08T18:10:08.882Z,13.60
2023-09-08T18:12:37.441Z,11.90
2023-09-08T18:15:06.264Z,11.80
2023-09-08T18:17:34.908Z,12.30
2023-09-08T18:20:04.900Z,13.00
2023-09-08T18:22:33.137Z,12.40
2023-09-08T18:25:01.982Z,12.70
2023-09-08T18:27:31.372Z,12.00
2023-09-08T18:29:59.738Z,11.50
2023-09-08T18:32:28.297Z,10.60
2023-09-08T18:34:56.717Z,10.90
2023-09-08T18:37:24.989Z,11.50
2023-09-08T18:39:53.464Z,10.90
2023-09-08T18:42:21.936Z,10.60
2023-09-08T18:44:50.311Z,11.80
2023-09-08T18:47:19.893Z,11.00
2023-09-08T18:49:48.110Z,10.90
2023-09-08T18:52:16.341Z,10.80
2023-09-08T18:54:45.228Z,10.50
2023-09-08T18:57:13.677Z,11.10
2023-09-08T18:59:41.988Z,11.10
2023-09-08T19:02:13.002Z,10.90
2023-09-08T19:04:41.318Z,11.20
2023-09-08T19:07:09.697Z,11.50
2023-09-08T19:09:37.912Z,10.00
2023-09-08T19:12:06.318Z,12.60
2023-09-08T19:14:34.644Z,11.20
2023-09-08T19:17:04.092Z,12.30
2023-09-08T19:19:32.324Z,10.90
2023-09-08T19:22:00.710Z,11.50
2023-09-08T19:24:30.846Z,11.30
2023-09-08T19:26:59.705Z,12.80
2023-09-08T19:29:27.971Z,12.10
2023-09-08T19:31:56.259Z,14.40
2023-09-08T19:34:24.537Z,14.20
2023-09-08T19:36:52.853Z,13.00
2023-09-08T19:39:21.135Z,13.50
2023-09-08T19:41:49.398Z,13.10
2023-09-08T19:44:17.701Z,12.80
2023-09-08T19:46:46.043Z,12.60
2023-09-08T19:49:14.404Z,12.60
2023-09-08T19:51:42.725Z,13.80
2023-09-08T19:54:12.096Z,12.40
2023-09-08T19:56:40.361Z,12.80
2023-09-08T19:59:08.619Z,13.00
2023-09-08T20:01:37.123Z,12.60
2023-09-08T20:04:05.738Z,12.30
2023-09-08T20:06:35.664Z,12.20
2023-09-08T20:09:11.676Z,12.20
2023-09-08T20:11:42.398Z,13.10
2023-09-08T20:14:11.467Z,13.40
2023-09-08T20:16:40.779Z,13.30
2023-09-08T20:19:09.342Z,13.50
2023-09-08T20:21:37.665Z,13.20
2023-09-08T20:24:07.643Z,13.20
2023-09-08T20:26:36.017Z,13.10
2023-09-08T20:29:04.328Z,12.30
2023-09-08T20:31:32.821Z,13.00
2023-09-08T20:34:01.025Z,12.40
2023-09-08T20:36:29.254Z,11.60
2023-09-08T20:38:57.507Z,12.50
2023-09-08T20:41:25.878Z,12.50
2023-09-08T20:43:54.193Z,12.30
2023-09-08T20:46:22.345Z,12.50
2023-09-08T20:48:50.616Z,11.90
2023-09-08T20:51:21.318Z,12.90
2023-09-08T20:53:49.693Z,12.60
2023-09-08T20:56:17.961Z,12.10
2023-09-08T20:58:46.272Z,12.80
2023-09-08T21:01:14.554Z,11.30
2023-09-08T21:03:43.062Z,12.30
2023-09-08T21:06:13.564Z,11.50
2023-09-08T21:08:41.766Z,10.60
2023-09-08T21:11:10.592Z,11.80
2023-09-08T21:13:39.091Z,12.90
2023-09-08T21:16:07.636Z,12.90
2023-09-08T21:18:36.019Z,12.80
2023-09-08T21:21:05.081Z,12.40
2023-09-08T21:23:33.334Z,12.80
2023-09-08T21:26:05.463Z,12.30
2023-09-08T21:28:34.629Z,11.80
2023-09-08T21:31:09.075Z,12.50
2023-09-08T21:33:38.918Z,12.80
2023-09-08T21:36:08.565Z,13.90
2023-09-08T21:38:37.089Z,11.30
2023-09-08T21:41:10.980Z,12.50
2023-09-08T21:43:39.800Z,11.50
2023-09-08T21:46:09.836Z,12.50
2023-09-08T21:48:40.196Z,12.80
2023-09-08T21:51:09.859Z,13.10
2023-09-08T21:53:38.641Z,12.70
2023-09-08T21:56:07.508Z,11.90
2023-09-08T21:58:35.962Z,12.30
2023-09-08T22:01:04.588Z,13.60
2023-09-08T22:03:33.123Z,11.70
2023-09-08T22:06:01.828Z,13.50
2023-09-08T22:08:30.124Z,13.70
2023-09-08T22:11:07.719Z,12.90
2023-09-08T22:13:37.701Z,13.20
2023-09-08T22:16:06.625Z,13.10
2023-09-08T22:18:35.830Z,13.10
2023-09-08T22:21:05.856Z,13.20
2023-09-08T22:23:34.353Z,12.00
2023-09-08T22:26:04.171Z,12.80
2023-09-08T22:28:32.562Z,12.70
2023-09-08T22:31:00.772Z,12.00
2023-09-08T22:33:30.783Z,13.00
2023-09-08T22:35:59.484Z,12.80
2023-09-08T22:38:28.338Z,13.10
2023-09-08T22:40:56.690Z,11.90
2023-09-08T22:43:25.975Z,13.10
2023-09-08T22:45:55.798Z,12.40
2023-09-08T22:48:24.637Z,12.20
2023-09-08T22:50:52.848Z,12.50
2023-09-08T22:53:21.208Z,12.20
2023-09-08T22:55:49.534Z,13.10
2023-09-08T22:58:17.821Z,12.90
2023-09-08T23:00:46.116Z,13.60
2023-09-08T23:03:14.499Z,13.80
2023-09-08T23:05:43.813Z,13.90
2023-09-08T23:08:12.066Z,14.20
2023-09-08T23:10:40.338Z,13.20
2023-09-08T23:13:08.582Z,13.00
2023-09-08T23:15:36.772Z,14.30
2023-09-08T23:18:05.250Z,12.60
2023-09-08T23:20:33.589Z,14.30
2023-09-08T23:23:01.810Z,15.00
2023-09-08T23:25:32.062Z,15.10
2023-09-08T23:28:00.415Z,15.00
2023-09-08T23:30:28.670Z,14.90
2023-09-08T23:32:56.941Z,14.90
2023-09-08T23:35:25.500Z,16.20
2023-09-08T23:37:53.708Z,14.40
2023-09-08T23:40:22.080Z,14.80
2023-09-08T23:42:50.322Z,14.90
2023-09-08T23:45:18.604Z,14.60
2023-09-08T23:47:46.787Z,14.70
2023-09-08T23:50:15.107Z,15.30
2023-09-08T23:52:43.372Z,15.70
2023-09-08T23:55:12.080Z,15.50
2023-09-08T23:57:40.271Z,16.10
